createdAt,value
2023-03-02T00:01:22.833Z,22.47
2023-03-02T00:04:29.318Z,18.27
2023-03-02T00:07:14.048Z,20.63
2023-03-02T00:10:03.276Z,20.37
2023-03-02T00:12:37.267Z,19.47
2023-03-02T00:15:08.787Z,20.77
2023-03-02T00:17:42.128Z,20.60
2023-03-02T00:20:39.520Z,22.87
2023-03-02T00:23:33.465Z,23.00
2023-03-02T00:26:15.587Z,21.43
2023-03-02T00:29:05.438Z,20.83
2023-03-02T00:31:47.064Z,24.33
2023-03-02T00:34:38.692Z,18.97
2023-03-02T00:37:11.831Z,22.73
2023-03-02T00:40:01.976Z,21.37
2023-03-02T00:42:38.071Z,19.53
2023-03-02T00:45:39.589Z,20.07
2023-03-02T00:48:31.204Z,20.30
2023-03-02T00:51:08.940Z,20.30
2023-03-02T00:54:00.729Z,20.67
2023-03-02T00:56:38.809Z,22.13
2023-03-02T00:59:26.791Z,23.50
2023-03-02T01:02:37.354Z,21.27
2023-03-02T01:05:18.609Z,19.50
2023-03-02T01:08:06.649Z,19.20
2023-03-02T01:10:54.436Z,21.87
2023-03-02T01:13:43.048Z,23.37
2023-03-02T01:16:45.862Z,23.23
2023-03-02T01:19:39.928Z,21.23
2023-03-02T01:22:36.060Z,21.73
2023-03-02T01:25:20.168Z,22.53
2023-03-02T01:27:59.452Z,20.40
2023-03-02T01:30:41.521Z,22.80
2023-03-02T01:33:32.358Z,21.33
2023-03-02T01:36:13.683Z,20.70
2023-03-02T01:38:45.281Z,21.63
2023-03-02T01:41:21.317Z,21.30
2023-03-02T01:44:01.894Z,21.10
2023-03-02T01:47:00.414Z,21.63
2023-03-02T01:49:34.623Z,24.77
2023-03-02T01:52:24.728Z,24.40
2023-03-02T01:55:11.053Z,27.60
2023-03-02T01:57:53.143Z,24.20
2023-03-02T02:00:36.314Z,24.53
2023-03-02T02:03:48.026Z,23.27
2023-03-02T02:06:33.016Z,24.20
2023-03-02T02:09:25.868Z,22.23
2023-03-02T02:12:18.226Z,23.17
2023-03-02T02:15:00.909Z,24.13
2023-03-02T02:17:58.119Z,20.53
2023-03-02T02:20:58.699Z,23.33
2023-03-02T02:23:51.725Z,24.67
2023-03-02T02:26:36.034Z,22.87
2023-03-02T02:29:23.020Z,25.00
2023-03-02T02:32:13.791Z,22.03
2023-03-02T02:35:07.023Z,21.57
2023-03-02T02:37:48.829Z,23.40
2023-03-02T02:40:51.398Z,24.00
2023-03-02T02:44:07.223Z,22.33
2023-03-02T02:46:41.520Z,24.60
2023-03-02T02:49:29.249Z,21.83
2023-03-02T02:52:00.306Z,24.50
2023-03-02T02:54:35.462Z,24.67
2023-03-02T02:57:18.589Z,23.70
2023-03-02T03:00:36.476Z,24.77
2023-03-02T03:03:35.168Z,21.77
2023-03-02T03:06:28.756Z,24.90
2023-03-02T03:09:04.462Z,23.07
2023-03-02T03:12:09.242Z,24.87
2023-03-02T03:15:00.212Z,21.37
2023-03-02T03:18:14.698Z,23.73
2023-03-02T03:21:05.211Z,21.40
2023-03-02T03:23:55.123Z,20.17
2023-03-02T03:26:45.494Z,24.80
2023-03-02T03:29:35.842Z,20.13
2023-03-02T03:32:26.613Z,21.13
2023-03-02T03:35:04.036Z,22.50
2023-03-02T03:37:54.885Z,23.60
2023-03-02T03:40:40.720Z,21.87
2023-03-02T03:43:15.544Z,21.37
2023-03-02T03:45:54.288Z,22.17
2023-03-02T03:48:46.296Z,21.17
2023-03-02T03:51:36.203Z,21.80
2023-03-02T03:54:17.651Z,24.60
2023-03-02T03:57:09.728Z,23.87
2023-03-02T03:59:41.493Z,22.90
2023-03-02T04:02:27.938Z,21.93
2023-03-02T04:05:20.186Z,23.97
2023-03-02T04:08:03.722Z,24.87
2023-03-02T04:10:48.278Z,24.37
2023-03-02T04:13:43.357Z,28.10
2023-03-02T04:16:20.505Z,21.60
2023-03-02T04:19:19.487Z,21.30
2023-03-02T04:22:04.839Z,20.83
2023-03-02T04:25:18.383Z,21.60
2023-03-02T04:28:06.669Z,26.33
2023-03-02T04:30:44.936Z,23.73
2023-03-02T04:33:16.455Z,19.03
2023-03-02T04:36:03.352Z,21.97
2023-03-02T04:39:02.241Z,22.00
2023-03-02T04:42:26.252Z,23.67
2023-03-02T04:45:05.744Z,21.47
2023-03-02T04:47:51.312Z,20.10
2023-03-02T04:50:33.394Z,21.60
2023-03-02T04:53:33.665Z,18.80
2023-03-02T04:56:04.730Z,22.60
2023-03-02T04:58:47.212Z,24.53
2023-03-02T05:01:49.480Z,18.97
2023-03-02T05:04:22.952Z,21.50
2023-03-02T05:07:10.887Z,22.53
2023-03-02T05:10:09.202Z,20.70
2023-03-02T05:12:58.483Z,22.93
2023-03-02T05:15:53.236Z,22.37
2023-03-02T05:18:51.541Z,20.13
2023-03-02T05:21:34.108Z,21.63
2023-03-02T05:24:06.078Z,21.47
2023-03-02T05:26:38.317Z,22.40
2023-03-02T05:29:28.178Z,20.20
2023-03-02T05:32:17.639Z,21.23
2023-03-02T05:35:05.969Z,19.93
2023-03-02T05:37:51.536Z,22.03
2023-03-02T05:40:39.539Z,23.53
2023-03-02T05:43:21.710Z,20.43
2023-03-02T05:46:15.411Z,20.63
2023-03-02T05:49:02.842Z,26.10
2023-03-02T05:51:56.884Z,21.03
2023-03-02T05:54:39.004Z,24.63
2023-03-02T05:57:24.678Z,23.43
2023-03-02T06:00:03.793Z,20.93
2023-03-02T06:03:07.537Z,19.57
2023-03-02T06:05:50.492Z,21.47
2023-03-02T06:08:24.958Z,19.80
2023-03-02T06:11:01.341Z,18.90
2023-03-02T06:13:40.672Z,18.87
2023-03-02T06:16:13.374Z,18.93
2023-03-02T06:19:08.785Z,22.03
2023-03-02T06:21:58.524Z,19.67
2023-03-02T06:25:11.730Z,19.73
2023-03-02T06:27:55.657Z,20.70
2023-03-02T06:30:38.110Z,21.67
2023-03-02T06:33:29.067Z,19.00
2023-03-02T06:36:19.959Z,21.43
2023-03-02T06:39:04.579Z,26.27
2023-03-02T06:41:36.804Z,20.73
2023-03-02T06:44:19.358Z,19.97
2023-03-02T06:46:58.682Z,21.10
2023-03-02T06:49:39.556Z,20.37
2023-03-02T06:52:51.423Z,19.87
2023-03-02T06:55:33.505Z,19.77
2023-03-02T06:58:24.244Z,19.27
2023-03-02T07:01:15.942Z,18.67
2023-03-02T07:04:05.765Z,19.97
2023-03-02T07:06:42.411Z,20.10
2023-03-02T07:09:34.681Z,18.80
2023-03-02T07:12:28.193Z,19.87
2023-03-02T07:15:11.602Z,22.87
2023-03-02T07:17:48.188Z,20.07
2023-03-02T07:20:20.872Z,21.57
2023-03-02T07:23:18.155Z,23.90
2023-03-02T07:26:09.407Z,20.40
2023-03-02T07:29:02.758Z,20.83
2023-03-02T07:31:37.027Z,20.97
2023-03-02T07:34:23.216Z,19.47
2023-03-02T07:36:58.371Z,20.90
2023-03-02T07:39:45.279Z,19.00
2023-03-02T07:42:31.141Z,17.83
2023-03-02T07:45:26.789Z,19.27
2023-03-02T07:48:15.685Z,21.20
2023-03-02T07:50:46.584Z,17.97
2023-03-02T07:53:19.642Z,21.57
2023-03-02T07:56:08.637Z,19.20
2023-03-02T07:58:40.073Z,20.83
2023-03-02T08:01:27.909Z,24.70
2023-03-02T08:04:10.004Z,18.97
2023-03-02T08:06:49.449Z,40.57
2023-03-02T08:09:31.867Z,21.03
2023-03-02T08:12:15.155Z,16.73
2023-03-02T08:15:04.876Z,20.70
2023-03-02T08:18:04.446Z,19.43
2023-03-02T08:21:11.008Z,20.53
2023-03-02T08:23:49.760Z,22.70
2023-03-02T08:26:42.548Z,18.07
2023-03-02T08:29:33.039Z,19.83
2023-03-02T08:32:14.510Z,19.13
2023-03-02T08:34:56.711Z,19.63
2023-03-02T08:37:55.966Z,19.60
2023-03-02T08:40:35.268Z,18.23
2023-03-02T08:43:22.364Z,19.70
2023-03-02T08:45:55.832Z,19.40
2023-03-02T08:48:50.051Z,23.07
2023-03-02T08:52:07.588Z,18.70
2023-03-02T08:54:56.720Z,18.30
2023-03-02T08:57:28.985Z,19.53
2023-03-02T09:00:14.921Z,21.23
2023-03-02T09:02:46.482Z,17.77
2023-03-02T09:05:20.894Z,18.37
2023-03-02T09:08:47.038Z,25.53
2023-03-02T09:11:28.027Z,22.23
2023-03-02T09:14:26.355Z,19.80
2023-03-02T09:17:22.699Z,18.63
2023-03-02T09:19:59.795Z,18.73
2023-03-02T09:22:51.080Z,16.20
2023-03-02T09:25:49.312Z,16.50
2023-03-02T09:28:44.708Z,17.47
2023-03-02T09:31:15.960Z,17.13
2023-03-02T09:33:50.908Z,19.53
2023-03-02T09:36:39.753Z,27.63
2023-03-02T09:39:18.216Z,17.80
2023-03-02T09:42:44.327Z,16.97
2023-03-02T09:46:03.444Z,19.77
2023-03-02T09:48:49.657Z,18.43
2023-03-02T09:51:48.546Z,18.00
2023-03-02T09:54:26.632Z,19.40
2023-03-02T09:57:09.444Z,17.07
2023-03-02T10:00:28.872Z,19.37
2023-03-02T10:03:16.958Z,20.83
2023-03-02T10:06:04.883Z,17.63
2023-03-02T10:08:49.781Z,16.53
2023-03-02T10:11:59.670Z,17.07
2023-03-02T10:14:44.996Z,21.77
2023-03-02T10:18:00.318Z,21.47
2023-03-02T10:20:49.878Z,22.80
2023-03-02T10:23:59.259Z,18.93
2023-03-02T10:27:01.934Z,19.73
2023-03-02T10:30:07.062Z,15.27
2023-03-02T10:32:49.660Z,15.43
2023-03-02T10:35:32.764Z,16.80
2023-03-02T10:38:16.066Z,20.23
2023-03-02T10:41:06.941Z,15.30
2023-03-02T10:43:52.357Z,16.67
2023-03-02T10:46:49.761Z,18.03
2023-03-02T10:49:50.404Z,19.63
2023-03-02T10:53:22.482Z,14.70
2023-03-02T10:56:03.959Z,17.33
2023-03-02T10:58:51.200Z,17.67
2023-03-02T11:01:32.123Z,16.17
2023-03-02T11:04:16.960Z,17.33
2023-03-02T11:06:59.061Z,13.77
2023-03-02T11:09:37.704Z,22.70
2023-03-02T11:12:25.361Z,20.67
2023-03-02T11:15:29.758Z,21.23
2023-03-02T11:18:17.309Z,15.67
2023-03-02T11:21:05.388Z,16.73
2023-03-02T11:24:07.206Z,21.37
2023-03-02T11:27:03.388Z,16.70
2023-03-02T11:29:49.625Z,14.63
2023-03-02T11:32:34.739Z,15.60
2023-03-02T11:35:35.987Z,17.30
2023-03-02T11:38:41.445Z,17.40
2023-03-02T11:41:30.277Z,19.03
2023-03-02T11:44:32.907Z,20.33
2023-03-02T11:47:14.430Z,17.07
2023-03-02T11:49:54.493Z,16.17
2023-03-02T11:52:41.457Z,15.53
2023-03-02T11:55:24.893Z,17.57
2023-03-02T12:00:55.848Z,15.33
2023-03-02T12:03:45.375Z,19.40
2023-03-02T12:06:46.608Z,19.57
2023-03-02T12:09:40.812Z,14.37
2023-03-02T12:12:46.207Z,13.20
2023-03-02T12:15:46.562Z,14.03
2023-03-02T12:18:59.938Z,19.30
2023-03-02T12:21:43.362Z,15.63
2023-03-02T12:24:34.769Z,14.70
2023-03-02T12:27:38.027Z,16.93
2023-03-02T12:30:37.358Z,17.43
2023-03-02T12:33:33.477Z,17.53
2023-03-02T12:36:45.844Z,18.40
2023-03-02T12:40:03.080Z,14.67
2023-03-02T12:43:29.668Z,14.60
2023-03-02T12:46:41.567Z,13.77
2023-03-02T12:49:40.501Z,14.33
2023-03-02T12:52:57.335Z,15.10
2023-03-02T12:55:37.718Z,12.30
2023-03-02T12:58:25.344Z,15.10
2023-03-02T13:01:06.958Z,17.17
2023-03-02T13:03:55.835Z,15.23
2023-03-02T13:06:34.227Z,11.70
2023-03-02T13:09:42.260Z,14.50
2023-03-02T13:12:19.328Z,27.23
2023-03-02T13:15:02.074Z,25.93
2023-03-02T13:17:53.147Z,16.67
2023-03-02T13:20:41.212Z,11.50
2023-03-02T13:23:33.433Z,16.00
2023-03-02T13:26:32.537Z,14.57
2023-03-02T13:29:15.026Z,14.53
2023-03-02T13:32:02.399Z,13.73
2023-03-02T13:34:36.599Z,13.97
2023-03-02T13:37:38.000Z,13.70
2023-03-02T13:40:49.064Z,13.77
2023-03-02T13:43:41.998Z,11.90
2023-03-02T13:46:42.308Z,13.67
2023-03-02T13:49:41.083Z,13.70
2023-03-02T13:52:29.945Z,9.67
2023-03-02T13:55:10.142Z,14.77
2023-03-02T13:57:43.132Z,12.80
2023-03-02T14:00:27.577Z,16.17
2023-03-02T14:03:40.892Z,12.30
2023-03-02T14:06:12.371Z,11.57
2023-03-02T14:08:50.655Z,11.53
2023-03-02T14:11:24.751Z,13.13
2023-03-02T14:14:15.752Z,14.03
2023-03-02T14:17:01.532Z,12.43
2023-03-02T14:19:37.366Z,13.13
2023-03-02T14:22:13.928Z,10.10
2023-03-02T14:25:00.378Z,13.10
2023-03-02T14:27:39.830Z,11.57
2023-03-02T14:30:21.931Z,12.93
2023-03-02T14:33:18.848Z,11.63
2023-03-02T14:36:08.518Z,8.87
2023-03-02T14:39:16.515Z,11.50
2023-03-02T14:41:56.083Z,12.03
2023-03-02T14:44:42.626Z,10.30
2023-03-02T14:47:32.344Z,13.70
2023-03-02T14:50:44.621Z,11.97
2023-03-02T14:53:33.625Z,10.77
2023-03-02T14:56:14.538Z,9.23
2023-03-02T14:58:59.451Z,10.83
2023-03-02T15:01:47.111Z,9.80
2023-03-02T15:04:44.689Z,11.30
2023-03-02T15:07:45.639Z,11.67
2023-03-02T15:10:32.706Z,10.23
2023-03-02T15:13:15.807Z,9.73
2023-03-02T15:15:57.298Z,10.10
2023-03-02T15:18:56.384Z,11.27
2023-03-02T15:21:47.988Z,8.73
2023-03-02T15:24:33.201Z,9.20
2023-03-02T15:27:06.628Z,14.37
2023-03-02T15:29:48.483Z,8.63
2023-03-02T15:32:36.739Z,7.00
2023-03-02T15:35:13.069Z,9.47
2023-03-02T15:37:58.591Z,9.07
2023-03-02T15:40:48.410Z,10.00
2023-03-02T15:43:46.069Z,10.83
2023-03-02T15:46:28.023Z,11.87
2023-03-02T15:49:25.454Z,13.33
2023-03-02T15:51:59.292Z,10.83
2023-03-02T15:55:15.474Z,8.60
2023-03-02T15:57:59.236Z,11.13
2023-03-02T16:00:44.445Z,11.47
2023-03-02T16:03:15.633Z,9.97
2023-03-02T16:05:53.656Z,8.13
2023-03-02T16:08:50.509Z,7.30
2023-03-02T16:12:02.020Z,9.17
2023-03-02T16:15:02.853Z,10.67
2023-03-02T16:17:51.024Z,10.57
2023-03-02T16:20:22.495Z,7.43
2023-03-02T16:23:06.496Z,10.40
2023-03-02T16:25:52.733Z,9.87
2023-03-02T16:28:48.206Z,9.23
2023-03-02T16:31:32.738Z,9.57
2023-03-02T16:34:20.979Z,11.00
2023-03-02T16:37:09.163Z,8.50
2023-03-02T16:40:06.955Z,9.80
2023-03-02T16:42:53.808Z,9.53
2023-03-02T16:45:50.763Z,11.40
2023-03-02T16:48:47.796Z,15.53
2023-03-02T16:51:30.168Z,9.90
2023-03-02T16:54:15.197Z,7.70
2023-03-02T16:57:13.286Z,8.87
2023-03-02T16:59:54.091Z,8.10
2023-03-02T17:02:41.726Z,9.07
2023-03-02T17:05:29.507Z,10.37
2023-03-02T17:08:10.899Z,11.53
2023-03-02T17:10:50.166Z,7.33
2023-03-02T17:13:29.392Z,11.17
2023-03-02T17:16:26.697Z,13.77
2023-03-02T17:19:30.687Z,14.20
2023-03-02T17:22:23.290Z,9.70
2023-03-02T17:25:09.654Z,9.23
2023-03-02T17:27:46.638Z,14.47
2023-03-02T17:30:41.034Z,9.87
2023-03-02T17:33:21.037Z,12.43
2023-03-02T17:36:04.131Z,9.00
2023-03-02T17:39:07.896Z,9.87
2023-03-02T17:41:46.462Z,10.13
2023-03-02T17:44:50.699Z,11.53
2023-03-02T17:47:32.701Z,13.93
2023-03-02T17:50:10.145Z,12.17
2023-03-02T17:52:48.984Z,11.77
2023-03-02T17:55:29.642Z,11.63
2023-03-02T17:58:00.216Z,12.97
2023-03-02T18:00:41.966Z,12.87
2023-03-02T18:03:22.246Z,10.90
2023-03-02T18:06:08.293Z,13.90
2023-03-02T18:08:50.468Z,11.53
2023-03-02T18:11:36.760Z,14.33
2023-03-02T18:14:28.796Z,15.20
2023-03-02T18:17:29.726Z,12.00
2023-03-02T18:20:21.507Z,13.50
2023-03-02T18:23:09.168Z,11.93
2023-03-02T18:25:43.217Z,16.90
2023-03-02T18:28:42.263Z,15.33
2023-03-02T18:31:17.950Z,16.17
2023-03-02T18:34:23.825Z,18.33
2023-03-02T18:37:01.294Z,15.17
2023-03-02T18:39:35.443Z,15.33
2023-03-02T18:42:20.783Z,18.63
2023-03-02T18:45:04.862Z,15.70
2023-03-02T18:47:38.687Z,16.20
2023-03-02T18:50:27.515Z,24.40
2023-03-02T18:53:17.173Z,19.50
2023-03-02T18:56:14.430Z,15.73
2023-03-02T18:59:06.118Z,20.70
2023-03-02T19:01:50.899Z,15.63
2023-03-02T19:04:41.811Z,14.60
2023-03-02T19:07:36.329Z,13.97
2023-03-02T19:10:08.030Z,17.73
2023-03-02T19:12:48.393Z,17.70
2023-03-02T19:15:38.525Z,17.33
2023-03-02T19:18:11.074Z,16.97
2023-03-02T19:20:57.942Z,18.03
2023-03-02T19:23:41.985Z,15.73
2023-03-02T19:26:24.009Z,14.70
2023-03-02T19:29:23.532Z,14.13
2023-03-02T19:32:20.722Z,23.43
2023-03-02T19:35:04.643Z,17.07
2023-03-02T19:37:54.990Z,15.73
2023-03-02T19:40:30.628Z,17.77
2023-03-02T19:43:27.794Z,13.03
2023-03-02T19:46:14.436Z,16.33
2023-03-02T19:48:56.506Z,17.10
2023-03-02T19:51:47.660Z,26.43
2023-03-02T19:54:21.116Z,18.17
2023-03-02T19:56:54.412Z,16.30
2023-03-02T19:59:50.588Z,13.57
2023-03-02T20:02:36.420Z,16.93
2023-03-02T20:05:41.648Z,16.83
2023-03-02T20:08:29.651Z,15.30
2023-03-02T20:11:20.928Z,20.07
2023-03-02T20:14:21.398Z,15.97
2023-03-02T20:17:06.903Z,15.50
2023-03-02T20:19:53.167Z,18.47
2023-03-02T20:22:34.986Z,15.40
2023-03-02T20:25:20.454Z,15.17
2023-03-02T20:28:12.175Z,14.93
2023-03-02T20:31:09.345Z,16.50
2023-03-02T20:34:05.145Z,17.13
2023-03-02T20:36:40.892Z,18.33
2023-03-02T20:39:30.833Z,16.70
2023-03-02T20:42:08.883Z,17.37
2023-03-02T20:45:03.247Z,20.57
2023-03-02T20:47:50.538Z,18.73
2023-03-02T20:50:48.344Z,16.57
2023-03-02T20:53:23.693Z,15.87
2023-03-02T20:56:15.767Z,21.43
2023-03-02T20:59:19.172Z,18.63
2023-03-02T21:01:58.210Z,14.03
2023-03-02T21:04:52.034Z,17.10
2023-03-02T21:07:52.229Z,18.07
2023-03-02T21:10:28.845Z,15.60
2023-03-02T21:13:13.151Z,17.67
2023-03-02T21:16:13.963Z,16.40
2023-03-02T21:18:48.084Z,15.63
2023-03-02T21:21:39.429Z,15.37
2023-03-02T21:24:30.460Z,17.43
2023-03-02T21:27:04.303Z,16.30
2023-03-02T21:29:41.368Z,16.03
2023-03-02T21:32:29.171Z,16.13
2023-03-02T21:35:08.951Z,15.20
2023-03-02T21:38:08.114Z,16.97
2023-03-02T21:40:51.128Z,16.13
2023-03-02T21:43:39.098Z,23.73
2023-03-02T21:46:41.093Z,17.97
2023-03-02T21:49:50.073Z,16.47
2023-03-02T21:52:21.337Z,16.40
2023-03-02T21:54:55.242Z,16.57
2023-03-02T21:57:55.682Z,19.87
2023-03-02T22:00:41.070Z,15.70
2023-03-02T22:03:22.918Z,18.57
2023-03-02T22:06:20.690Z,16.67
2023-03-02T22:09:16.976Z,17.60
2023-03-02T22:11:58.203Z,14.67
2023-03-02T22:14:47.991Z,19.27
2023-03-02T22:17:36.166Z,17.37
2023-03-02T22:20:35.869Z,19.50
2023-03-02T22:23:14.157Z,18.90
2023-03-02T22:25:59.833Z,15.93
2023-03-02T22:28:43.232Z,21.60
2023-03-02T22:31:41.252Z,17.13
2023-03-02T22:34:28.335Z,13.63
2023-03-02T22:37:14.846Z,15.93
2023-03-02T22:39:53.707Z,12.97
2023-03-02T22:42:44.730Z,14.10
2023-03-02T22:45:25.256Z,16.33
2023-03-02T22:48:21.596Z,15.37
2023-03-02T22:51:06.207Z,15.47
2023-03-02T22:53:53.246Z,14.87
2023-03-02T22:56:32.595Z,15.63
2023-03-02T22:59:35.430Z,14.97
2023-03-02T23:02:35.822Z,15.47
2023-03-02T23:05:30.460Z,16.47
2023-03-02T23:08:20.266Z,16.70
2023-03-02T23:10:52.692Z,15.70
2023-03-02T23:14:02.686Z,17.13
2023-03-02T23:16:45.758Z,14.87
2023-03-02T23:19:27.930Z,17.53
2023-03-02T23:22:03.634Z,15.37
2023-03-02T23:24:40.382Z,16.00
2023-03-02T23:27:24.914Z,17.93
2023-03-02T23:30:34.168Z,16.90
2023-03-02T23:33:23.789Z,18.23
2023-03-02T23:36:04.558Z,18.37
2023-03-02T23:38:45.067Z,14.70
2023-03-02T23:41:27.567Z,16.90
2023-03-02T23:44:12.938Z,19.17
2023-03-02T23:47:07.031Z,16.83
2023-03-02T23:49:53.903Z,14.93
2023-03-02T23:52:51.636Z,14.30
2023-03-02T23:55:46.967Z,15.57
2023-03-02T23:58:32.854Z,18.27
